Weather at Copenhagen Kastrup Airport

Public forecast

Using degrees Celsius for public forecast. Weather courtesy of forecast.io.

Current aviation weather report (METAR) for Copenhagen Kastrup Airport

2022/11/30 09:20 (retrieved 33 minutes ago)

EKCH 300920Z AUTO 08009KT 9999 OVC066/// 05/01 Q1028 NOSIG

Aviation forecast (TAF) for Copenhagen Kastrup Airport

2022/11/30 06:31 (retrieved 3 hours ago)

TAF EKCH 300505Z 3006/0106 07012KT 9999 BKN030 TEMPO 3016/0106 BKN012